Terminal Aerodrome Forecast
Issued by NWS Charleston, WV

Current Version | Previous Version | Graphics & Text | Print | Product List | Glossary On
Versions: 1 2 3 4 5 6 7 8 9 10 11 12 13 14 15 16 17 18 19 20 21 22 23 24 25 26
197
FTUS41 KRLX 200318 AAA
TAFCRW
TAF AMD
KCRW 200318Z 2003/2024 06004KT P6SM BKN150
      TEMPO 2008/2009 4SM -RA OVC025
     FM200900 13004KT 3SM -RA SCT025 OVC050
     FM201200 16005KT P6SM BKN025
     FM201400 19005KT P6SM OVC035
     FM201600 20007KT P6SM BKN040
     FM201800 22008KT P6SM SCT040
     FM202300 19004KT P6SM SCT250=

USA.gov is the U.S. government's official web portal to all federal, state and local government web resources and services.